Flight Track Log - Related Links

Times and Time Zones

All times are in EDT time to prevent confusion due to time zone crossing. See the FIN666 flight status page for this flight to view local times or setup timezone preferences in your user account.


Time Position Orientation Groundspeed Altitude Reporting Facility
EDT Latitude Longitude Course Direction KTS MPH feet Rate Location/Type
Thu 08:14:00 AM 55.8520 13.1400 49° Northeast  Level Estimated
Thu 08:15:00 AM 55.9296 13.3027 50° Northeast  Level Estimated
Thu 08:16:00 AM 56.0070 13.4660 50° Northeast  Level Estimated
Thu 08:17:00 AM 56.0866 13.6350 50° Northeast  Level Estimated
Thu 08:18:00 AM 56.1659 13.8047 50° Northeast  Level Estimated
Thu 08:19:00 AM 56.2450 13.9751 50° Northeast  Level Estimated
Thu 08:20:00 AM 56.3239 14.1462 50° Northeast  Level Estimated
Thu 08:21:00 AM 56.4025 14.3180 50° Northeast  Level Estimated
Thu 08:22:00 AM 56.4809 14.4906 51° Northeast  Level Estimated
Thu 08:23:00 AM 56.5590 14.6638 51° Northeast  Level Estimated
Thu 08:24:00 AM 56.6369 14.8378 51° Northeast  Level Estimated
Thu 08:25:00 AM 56.7146 15.0125 51° Northeast  Level Estimated
Thu 08:26:00 AM 56.7920 15.1878 51° Northeast  Level Estimated
Thu 08:27:00 AM 56.8691 15.3640 51° Northeast  Level Estimated
Thu 08:28:00 AM 56.9460 15.5408 51° Northeast  Level Estimated
Thu 08:29:00 AM 57.0227 15.7184 52° Northeast  Level Estimated
Thu 08:30:00 AM 57.0991 15.8967 52° Northeast  Level Estimated
Thu 08:31:00 AM 57.1753 16.0758 52° Northeast  Level Estimated
Thu 08:32:00 AM 57.2512 16.2556 52° Northeast  Level Estimated
Thu 08:33:00 AM 57.3268 16.4361 52° Northeast  Level Estimated
Thu 08:34:00 AM 57.4022 16.6173 52° Northeast  Level Estimated
Thu 08:35:00 AM 57.4773 16.7994 52° Northeast  Level Estimated
Thu 08:36:00 AM 57.5522 16.9821 53° Northeast  Level Estimated
Thu 08:37:00 AM 57.6268 17.1657 53° Northeast  Level Estimated
Thu 08:38:00 AM 57.7011 17.3499 53° Northeast  Level Estimated
Thu 08:39:00 AM 57.7751 17.5350 53° Northeast  Level Estimated
Thu 08:40:00 AM 57.8489 17.7208 53° Northeast  Level Estimated
Thu 08:41:00 AM 57.9224 17.9073 53° Northeast  Level Estimated
Thu 08:42:00 AM 57.9957 18.0946 54° Northeast  Level Estimated
Thu 08:43:00 AM 58.0686 18.2827 54° Northeast  Level Estimated
Thu 08:44:00 AM 58.1413 18.4715 54° Northeast  Level Estimated
Thu 08:45:00 AM 58.2137 18.6612 54° Northeast  Level Estimated
Thu 08:46:00 AM 58.2858 18.8515 54° Northeast  Level Estimated
Thu 08:47:00 AM 58.3577 19.0427 54° Northeast  Level Estimated
Thu 08:48:00 AM 58.4292 19.2347 54° Northeast  Level Estimated
Thu 08:49:00 AM 58.5005 19.4274 55° Northeast  Level Estimated
Thu 08:50:00 AM 58.5715 19.6209 55° Northeast  Level Estimated
Thu 08:51:00 AM 58.6421 19.8152 55° Northeast  Level Estimated
Thu 08:52:00 AM 58.7125 20.0103 55° Northeast  Level Estimated
Thu 08:53:00 AM 58.7826 20.2061 55° Northeast  Level Estimated
Thu 08:54:00 AM 58.8524 20.4028 55° Northeast  Level Estimated
Thu 08:55:00 AM 58.9219 20.6002 56° Northeast  Level Estimated
Thu 08:56:00 AM 58.9911 20.7985 56° Northeast  Level Estimated
Thu 08:57:00 AM 59.0600 20.9975 56° Northeast  Level Estimated
Thu 08:58:00 AM 59.1296 21.2005 56° Northeast  Level Estimated
Thu 08:59:00 AM 59.1990 21.4043 56° Northeast  Level Estimated
Thu 09:00:00 AM 59.2680 21.6089 57° Northeast  Level Estimated
Thu 09:01:00 AM 59.3367 21.8144 57° Northeast  Level Estimated
Thu 09:02:00 AM 59.4050 22.0206 57° Northeast  Level Estimated
Thu 09:03:00 AM 59.4731 22.2277 57° Northeast  Level Estimated
Thu 09:04:00 AM 59.5408 22.4357 57° Northeast  Level Estimated
Thu 09:05:00 AM 59.6082 22.6445 57° Northeast  Level Estimated
Thu 09:06:00 AM 59.6752 22.8541 58° Northeast  Level Estimated
Thu 09:07:00 AM 59.7419 23.0645 58° Northeast  Level Estimated
Thu 09:08:00 AM 59.8083 23.2758 58° Northeast  Level Estimated
Thu 09:09:00 AM 59.8743 23.4879 58° Northeast  Level Estimated
Thu 09:10:00 AM 59.9400 23.7009 58° Northeast  Level Estimated
Thu 09:11:00 AM 60.0054 23.9147 58° Northeast  Level Estimated
Thu 09:12:00 AM 60.0704 24.1294 59° Northeast  Level Estimated
Thu 09:13:00 AM 60.1350 24.3449 59° Northeast  Level Estimated
Thu 09:14:00 AM 60.1993 24.5613 59° Northeast  Level Estimated
Thu 09:15:00 AM 60.2633 24.7785 59° Northeast  Level Estimated
Thu 09:16:00 AM 60.3172 24.9633 59° Northeast  Level Estimated
Thu 09:17:00 AM 60.3172 24.9633 37° Northeast  Level Estimated
Thu 09:18:00 AM 60.3172 24.9633 37° Northeast  Level Estimated
Thu 09:19:00 AM 60.3172 24.9633 37° Northeast  Level Estimated
Thu 09:20:00 AM 60.3172 24.9633 37° Northeast  Level Estimated
Thu 09:21:00 AM 60.3172 24.9633 37° Northeast  Level Estimated
Thu 09:22:00 AM 60.3172 24.9633 37° Northeast  Level Estimated
Thu 09:23:00 AM 60.3172 24.9633 37° Northeast  Level Estimated
Thu 09:24:00 AM 60.3172 24.9633 37° Northeast  Level Estimated
Thu 09:25:00 AM 60.3172 24.9633 37° Northeast  Level Estimated
Thu 09:26:00 AM 60.3172 24.9633 37° Northeast  Level Estimated

Login

Don't have an account? Register now (free) for customized features, flight alerts, and more!